createdAt,value
2019-03-12T00:00:53.952Z,99.90
2019-03-12T00:03:23.325Z,99.90
2019-03-12T00:05:52.642Z,99.90
2019-03-12T00:08:22.630Z,99.90
2019-03-12T00:10:51.985Z,99.90
2019-03-12T00:13:21.929Z,99.90
2019-03-12T00:15:51.583Z,99.90
2019-03-12T00:18:20.898Z,99.90
2019-03-12T00:20:50.205Z,99.90
2019-03-12T00:23:19.511Z,99.90
2019-03-12T00:25:48.905Z,99.90
2019-03-12T00:28:18.466Z,99.90
2019-03-12T00:30:48.058Z,99.90
2019-03-12T00:33:17.461Z,99.90
2019-03-12T00:35:46.725Z,99.90
2019-03-12T00:38:16.042Z,99.90
2019-03-12T00:40:45.661Z,99.90
2019-03-12T00:43:14.997Z,99.90
2019-03-12T00:45:44.356Z,99.90
2019-03-12T00:48:13.644Z,99.90
2019-03-12T00:50:42.933Z,99.90
2019-03-12T00:53:12.197Z,99.90
2019-03-12T00:55:41.519Z,99.90
2019-03-12T00:58:10.821Z,99.90
2019-03-12T01:00:40.107Z,99.90
2019-03-12T01:03:09.400Z,99.90
2019-03-12T01:05:38.820Z,99.90
2019-03-12T01:08:08.131Z,99.90
2019-03-12T01:10:37.488Z,99.90
2019-03-12T01:13:19.409Z,99.90
2019-03-12T01:15:48.716Z,99.90
2019-03-12T01:18:18.016Z,99.90
2019-03-12T01:20:47.281Z,99.90
2019-03-12T01:23:16.572Z,99.90
2019-03-12T01:25:45.904Z,99.90
2019-03-12T01:28:15.288Z,99.90
2019-03-12T01:30:44.581Z,99.90
2019-03-12T01:33:14.118Z,99.90
2019-03-12T01:35:43.434Z,99.90
2019-03-12T01:38:12.794Z,99.90
2019-03-12T01:40:42.419Z,99.90
2019-03-12T01:43:13.964Z,99.90
2019-03-12T01:45:43.254Z,99.90
2019-03-12T01:48:12.553Z,99.90
2019-03-12T01:50:41.850Z,99.90
2019-03-12T01:53:11.155Z,99.90
2019-03-12T01:55:40.454Z,99.90
2019-03-12T01:58:09.801Z,99.90
2019-03-12T02:00:39.224Z,99.90
2019-03-12T02:03:08.473Z,99.90
2019-03-12T02:05:37.764Z,99.90
2019-03-12T02:08:07.085Z,99.90
2019-03-12T02:10:36.383Z,99.90
2019-03-12T02:13:05.873Z,99.90
2019-03-12T02:15:35.174Z,99.90
2019-03-12T02:18:04.491Z,99.90
2019-03-12T02:20:33.828Z,99.90
2019-03-12T02:23:03.149Z,99.90
2019-03-12T02:25:32.525Z,99.90
2019-03-12T02:28:01.807Z,99.90
2019-03-12T02:30:31.098Z,99.90
2019-03-12T02:33:00.356Z,99.90
2019-03-12T02:35:29.735Z,99.90
2019-03-12T02:37:59.018Z,99.90
2019-03-12T02:40:28.298Z,99.90
2019-03-12T02:42:57.515Z,99.90
2019-03-12T02:45:26.817Z,99.90
2019-03-12T02:47:56.391Z,99.90
2019-03-12T02:50:25.693Z,99.90
2019-03-12T02:52:54.993Z,99.90
2019-03-12T02:55:24.329Z,99.90
2019-03-12T02:57:53.624Z,99.90
2019-03-12T03:00:23.309Z,99.90
2019-03-12T03:02:52.628Z,99.90
2019-03-12T03:05:22.029Z,99.90
2019-03-12T03:07:59.505Z,99.90
2019-03-12T03:10:28.834Z,99.90
2019-03-12T03:12:58.120Z,99.90
2019-03-12T03:15:30.378Z,99.90
2019-03-12T03:17:59.670Z,99.90
2019-03-12T03:20:29.303Z,99.90
2019-03-12T03:22:58.569Z,99.90
2019-03-12T03:25:27.854Z,99.90
2019-03-12T03:27:57.169Z,99.90
2019-03-12T03:30:26.458Z,99.90
2019-03-12T03:32:55.779Z,99.90
2019-03-12T03:35:25.163Z,99.90
2019-03-12T03:37:54.453Z,99.90
2019-03-12T03:40:23.817Z,99.90
2019-03-12T03:42:53.216Z,99.90
2019-03-12T03:45:22.513Z,99.90
2019-03-12T03:47:51.885Z,99.90
2019-03-12T03:50:21.230Z,99.90
2019-03-12T03:52:50.622Z,99.90
2019-03-12T03:55:19.935Z,99.90
2019-03-12T03:57:49.516Z,99.90
2019-03-12T04:00:20.481Z,99.90
2019-03-12T04:02:50.185Z,99.90
2019-03-12T04:05:20.009Z,99.90
2019-03-12T04:07:49.436Z,99.90
2019-03-12T04:10:18.799Z,99.90
2019-03-12T04:12:48.168Z,99.90
2019-03-12T04:15:17.826Z,99.90
2019-03-12T04:17:47.217Z,99.90
2019-03-12T04:20:17.300Z,99.90
2019-03-12T04:25:17.795Z,99.90
2019-03-12T04:27:48.701Z,99.90
2019-03-12T04:30:18.229Z,99.90
2019-03-12T04:32:47.525Z,99.90
2019-03-12T04:35:17.910Z,99.90
2019-03-12T04:37:47.198Z,99.90
2019-03-12T04:40:16.866Z,99.90
2019-03-12T04:42:46.184Z,99.90
2019-03-12T04:45:15.976Z,99.90
2019-03-12T04:47:45.240Z,99.90
2019-03-12T04:50:14.831Z,99.90
2019-03-12T04:52:44.118Z,99.90
2019-03-12T04:55:14.128Z,99.90
2019-03-12T04:57:43.553Z,99.90
2019-03-12T05:00:15.247Z,99.90
2019-03-12T05:02:44.534Z,99.90
2019-03-12T05:05:14.228Z,99.90
2019-03-12T05:07:44.910Z,99.90
2019-03-12T05:10:14.762Z,99.90
2019-03-12T05:12:44.032Z,99.90
2019-03-12T05:15:13.928Z,99.90
2019-03-12T05:17:43.680Z,99.90
2019-03-12T05:20:13.941Z,99.90
2019-03-12T05:22:43.202Z,99.90
2019-03-12T05:25:12.762Z,99.90
2019-03-12T05:27:42.118Z,99.90
2019-03-12T05:30:14.138Z,99.90
2019-03-12T05:32:43.423Z,99.90
2019-03-12T05:35:12.763Z,99.90
2019-03-12T05:37:42.134Z,99.90
2019-03-12T05:40:11.502Z,99.90
2019-03-12T05:42:40.782Z,99.90
2019-03-12T05:45:10.217Z,99.90
2019-03-12T05:47:39.527Z,99.90
2019-03-12T05:50:10.049Z,99.90
2019-03-12T05:52:43.505Z,99.90
2019-03-12T05:55:13.696Z,99.90
2019-03-12T05:57:43.054Z,99.90
2019-03-12T06:00:13.513Z,99.90
2019-03-12T06:02:42.870Z,99.90
2019-03-12T06:05:12.211Z,99.90
2019-03-12T06:07:41.793Z,99.90
2019-03-12T06:10:11.399Z,99.90
2019-03-12T06:12:40.813Z,99.90
2019-03-12T06:15:10.098Z,99.90
2019-03-12T06:17:39.413Z,99.90
2019-03-12T06:20:11.547Z,99.90
2019-03-12T06:22:43.134Z,99.90
2019-03-12T06:25:12.821Z,99.90
2019-03-12T06:27:42.142Z,99.90
2019-03-12T06:30:12.198Z,99.90
2019-03-12T06:32:50.920Z,99.90
2019-03-12T06:35:29.167Z,99.90
2019-03-12T06:38:29.584Z,99.90
2019-03-12T06:41:03.801Z,99.90
2019-03-12T06:43:54.975Z,99.90
2019-03-12T06:46:33.582Z,99.90
2019-03-12T06:49:20.561Z,99.90
2019-03-12T06:52:06.793Z,99.90
2019-03-12T06:55:01.461Z,99.90
2019-03-12T06:58:01.873Z,99.90
2019-03-12T07:00:46.740Z,99.90
2019-03-12T07:03:24.816Z,99.90
2019-03-12T07:06:13.050Z,99.90
2019-03-12T07:09:13.470Z,99.90
2019-03-12T07:12:10.500Z,99.90
2019-03-12T07:14:54.970Z,99.90
2019-03-12T07:17:55.434Z,99.90
2019-03-12T07:20:46.434Z,99.90
2019-03-12T07:23:37.076Z,99.90
2019-03-12T07:26:25.305Z,99.90
2019-03-12T07:29:13.560Z,99.90
2019-03-12T07:31:51.034Z,99.90
2019-03-12T07:34:36.573Z,99.90
2019-03-12T07:37:13.670Z,99.90
2019-03-12T07:40:01.933Z,99.90
2019-03-12T07:42:42.201Z,99.90
2019-03-12T07:45:33.697Z,99.90
2019-03-12T07:48:15.977Z,99.90
2019-03-12T07:51:03.176Z,99.90
2019-03-12T07:53:59.550Z,99.90
2019-03-12T07:56:47.205Z,99.90
2019-03-12T07:59:30.685Z,99.90
2019-03-12T08:02:12.647Z,99.90
2019-03-12T08:05:19.175Z,99.90
2019-03-12T08:08:19.479Z,99.90
2019-03-12T08:10:55.832Z,99.90
2019-03-12T08:13:44.125Z,99.90
2019-03-12T08:16:22.214Z,99.90
2019-03-12T08:19:09.065Z,99.90
2019-03-12T08:21:59.993Z,99.90
2019-03-12T08:24:37.060Z,99.90
2019-03-12T08:27:20.641Z,99.90
2019-03-12T08:30:14.082Z,99.90
2019-03-12T08:32:53.978Z,99.90
2019-03-12T08:35:42.287Z,99.90
2019-03-12T08:38:33.530Z,99.90
2019-03-12T08:41:18.089Z,99.90
2019-03-12T08:43:55.869Z,99.90
2019-03-12T08:47:02.380Z,99.90
2019-03-12T09:00:51.079Z,99.90
2019-03-12T09:06:18.186Z,99.90
2019-03-12T09:09:04.704Z,99.90
2019-03-12T09:11:55.800Z,99.90
2019-03-12T09:14:42.849Z,99.90
2019-03-12T09:17:31.088Z,99.90
2019-03-12T09:20:17.974Z,99.90
2019-03-12T09:22:57.724Z,99.90
2019-03-12T09:25:42.490Z,99.90
2019-03-12T09:28:33.744Z,99.90
2019-03-12T09:31:25.013Z,99.90
2019-03-12T09:34:09.437Z,99.90
2019-03-12T09:36:56.269Z,99.90
2019-03-12T09:42:41.880Z,99.90
2019-03-12T09:45:36.202Z,99.90
2019-03-12T09:48:27.213Z,99.90
2019-03-12T09:51:18.232Z,99.90
2019-03-12T09:54:11.280Z,99.90
2019-03-12T09:57:06.858Z,99.90
2019-03-12T09:59:47.408Z,99.90
2019-03-12T10:02:44.039Z,99.90
2019-03-12T10:05:38.041Z,99.90
2019-03-12T10:08:35.798Z,99.90
2019-03-12T10:11:35.663Z,99.90
2019-03-12T10:14:35.854Z,99.90
2019-03-12T10:17:29.707Z,99.90
2019-03-12T10:20:26.296Z,99.90
2019-03-12T10:23:29.734Z,99.90
2019-03-12T10:26:21.020Z,99.90
2019-03-12T10:29:09.282Z,99.90
2019-03-12T10:31:57.777Z,99.90
2019-03-12T10:34:32.977Z,99.90
2019-03-12T10:37:17.108Z,99.90
2019-03-12T10:40:07.090Z,99.90
2019-03-12T10:42:50.986Z,99.90
2019-03-12T10:45:33.575Z,99.90
2019-03-12T10:48:02.820Z,99.90
2019-03-12T10:50:32.189Z,99.90
2019-03-12T10:53:02.287Z,99.90
2019-03-12T10:55:31.619Z,99.90
2019-03-12T10:58:00.908Z,99.90
2019-03-12T11:00:30.222Z,99.90
2019-03-12T11:02:59.623Z,99.90
2019-03-12T11:05:28.966Z,99.90
2019-03-12T11:07:58.335Z,99.90
2019-03-12T11:10:30.593Z,99.90
2019-03-12T11:12:59.917Z,99.90
2019-03-12T11:15:29.191Z,99.90
2019-03-12T11:17:58.494Z,99.90
2019-03-12T11:20:27.906Z,99.90
2019-03-12T11:22:57.303Z,99.90
2019-03-12T11:25:28.230Z,99.90
2019-03-12T11:27:58.035Z,99.90
2019-03-12T11:30:27.325Z,99.90
2019-03-12T11:32:57.013Z,99.90
2019-03-12T11:35:26.310Z,99.90
2019-03-12T11:37:55.810Z,99.90
2019-03-12T11:40:31.870Z,99.90
2019-03-12T11:42:59.066Z,99.90
2019-03-12T11:45:36.377Z,99.90
2019-03-12T11:47:59.553Z,99.90
2019-03-12T11:50:28.923Z,99.90
2019-03-12T11:53:00.034Z,99.90
2019-03-12T11:55:29.355Z,99.90
2019-03-12T11:57:58.744Z,99.90
2019-03-12T12:03:00.765Z,99.90
2019-03-12T12:05:32.928Z,99.90
2019-03-12T12:08:02.237Z,99.90
2019-03-12T12:10:31.568Z,99.90
2019-03-12T12:13:01.290Z,99.90
2019-03-12T12:15:30.754Z,99.90
2019-03-12T12:18:03.153Z,99.90
2019-03-12T12:20:34.045Z,99.90
2019-03-12T12:23:03.452Z,99.90
2019-03-12T12:25:32.745Z,99.90
2019-03-12T12:28:02.125Z,99.90
2019-03-12T12:30:31.722Z,99.90
2019-03-12T12:33:00.953Z,99.90
2019-03-12T12:35:30.236Z,99.90
2019-03-12T12:37:59.570Z,99.90
2019-03-12T12:40:29.241Z,99.90
2019-03-12T12:42:58.605Z,99.90
2019-03-12T12:45:28.039Z,99.90
2019-03-12T12:47:57.327Z,99.70
2019-03-12T12:50:26.633Z,99.90
2019-03-12T12:52:55.923Z,99.90
2019-03-12T12:55:25.230Z,99.90
2019-03-12T12:57:54.638Z,99.50
2019-03-12T13:00:23.947Z,99.90
2019-03-12T13:02:53.231Z,99.40
2019-03-12T13:05:22.554Z,97.90
2019-03-12T13:07:51.825Z,99.90
2019-03-12T13:10:22.815Z,99.90
2019-03-12T13:12:52.153Z,99.00
2019-03-12T13:15:21.544Z,98.00
2019-03-12T13:17:50.855Z,99.20
2019-03-12T13:20:21.220Z,98.70
2019-03-12T13:22:51.001Z,99.40
2019-03-12T13:25:20.485Z,96.80
2019-03-12T13:27:49.806Z,97.00
2019-03-12T13:30:19.605Z,97.50
2019-03-12T13:32:49.517Z,97.80
2019-03-12T13:35:19.326Z,96.60
2019-03-12T13:37:49.147Z,98.30
2019-03-12T13:40:18.957Z,95.00
2019-03-12T13:42:48.334Z,94.90
2019-03-12T13:45:18.366Z,96.00
2019-03-12T13:47:49.916Z,97.10
2019-03-12T13:50:19.656Z,95.50
2019-03-12T13:52:49.030Z,93.40
2019-03-12T13:55:18.595Z,95.50
2019-03-12T13:57:48.214Z,94.90
2019-03-12T14:00:18.781Z,94.90
2019-03-12T14:02:48.219Z,96.00
2019-03-12T14:05:17.944Z,95.10
2019-03-12T14:07:47.426Z,96.40
2019-03-12T14:10:18.845Z,95.60
2019-03-12T14:12:48.180Z,94.80
2019-03-12T14:15:19.670Z,95.70
2019-03-12T14:17:49.217Z,97.20
2019-03-12T14:21:03.275Z,97.60
2019-03-12T14:23:41.321Z,98.00
2019-03-12T14:26:12.164Z,97.60
2019-03-12T14:28:41.797Z,97.10
2019-03-12T14:31:11.016Z,97.70
2019-03-12T14:33:40.362Z,97.20
2019-03-12T14:36:10.113Z,96.80
2019-03-12T14:38:39.582Z,98.40
2019-03-12T14:41:08.873Z,97.70
2019-03-12T14:43:38.151Z,97.10
2019-03-12T14:46:07.448Z,96.50
2019-03-12T14:49:05.594Z,97.00
2019-03-12T14:51:58.167Z,96.80
2019-03-12T14:54:27.533Z,98.10
2019-03-12T14:56:56.771Z,98.20
2019-03-12T14:59:26.058Z,98.10
2019-03-12T15:01:55.366Z,98.60
2019-03-12T15:04:24.659Z,97.00
2019-03-12T15:06:53.933Z,96.80
2019-03-12T15:09:23.247Z,97.10
2019-03-12T15:11:52.506Z,96.50
2019-03-12T15:14:21.746Z,97.20
2019-03-12T15:16:51.085Z,95.70
2019-03-12T15:19:20.385Z,95.90
2019-03-12T15:21:49.678Z,96.60
2019-03-12T15:24:18.910Z,95.30
2019-03-12T15:26:48.131Z,96.50
2019-03-12T15:29:17.391Z,96.00
2019-03-12T15:31:46.727Z,96.70
2019-03-12T15:34:16.045Z,95.80
2019-03-12T15:36:45.611Z,94.80
2019-03-12T15:39:15.326Z,95.40
2019-03-12T15:41:44.532Z,95.80
2019-03-12T15:44:14.072Z,95.20
2019-03-12T15:46:43.383Z,95.30
2019-03-12T15:49:12.695Z,94.90
2019-03-12T15:51:42.022Z,94.90
2019-03-12T15:54:11.330Z,94.60
2019-03-12T15:56:40.726Z,94.30
2019-03-12T15:59:10.046Z,94.20
2019-03-12T16:01:39.988Z,95.20
2019-03-12T16:04:09.171Z,94.90
2019-03-12T16:06:38.570Z,95.60
2019-03-12T16:09:09.079Z,95.20
2019-03-12T16:11:38.425Z,94.20
2019-03-12T16:14:07.708Z,95.70
2019-03-12T16:16:37.362Z,95.00
2019-03-12T16:19:06.636Z,93.80
2019-03-12T16:21:35.968Z,94.70
2019-03-12T16:24:05.339Z,93.50
2019-03-12T16:26:34.705Z,93.50
2019-03-12T16:29:04.004Z,92.70
2019-03-12T16:31:33.339Z,93.40
2019-03-12T16:34:02.621Z,93.20
2019-03-12T16:36:31.991Z,93.90
2019-03-12T16:39:01.542Z,94.40
2019-03-12T16:41:30.830Z,94.70
2019-03-12T16:44:00.131Z,94.90
2019-03-12T16:46:29.741Z,95.00
2019-03-12T16:48:59.044Z,95.20
2019-03-12T16:51:28.372Z,95.40
2019-03-12T16:53:57.653Z,95.60
2019-03-12T16:56:26.958Z,95.70
2019-03-12T16:58:56.242Z,96.10
2019-03-12T17:01:29.061Z,96.80
2019-03-12T17:03:58.376Z,97.00
2019-03-12T17:06:27.876Z,97.40
2019-03-12T17:08:57.224Z,98.50
2019-03-12T17:11:26.517Z,97.80
2019-03-12T17:13:55.960Z,98.60
2019-03-12T17:16:25.292Z,98.20
2019-03-12T17:18:54.653Z,98.30
2019-03-12T17:21:23.951Z,99.00
2019-03-12T17:23:53.304Z,99.10
2019-03-12T17:26:22.609Z,99.00
2019-03-12T17:28:52.036Z,99.60
2019-03-12T17:31:21.342Z,98.80
2019-03-12T17:33:50.651Z,98.60
2019-03-12T17:36:20.024Z,99.70
2019-03-12T17:38:49.704Z,99.90
2019-03-12T17:41:18.981Z,99.60
2019-03-12T17:43:48.297Z,99.20
2019-03-12T17:46:17.918Z,98.80
2019-03-12T17:48:47.241Z,99.10
2019-03-12T17:51:16.826Z,98.90
2019-03-12T17:53:46.342Z,98.90
2019-03-12T17:56:15.774Z,99.10
2019-03-12T17:58:50.742Z,98.60
2019-03-12T18:01:20.101Z,99.10
2019-03-12T18:03:49.661Z,99.10
2019-03-12T18:06:19.190Z,99.00
2019-03-12T18:08:48.709Z,99.10
2019-03-12T18:11:18.085Z,99.90
2019-03-12T18:13:47.432Z,99.30
2019-03-12T18:16:16.814Z,99.30
2019-03-12T18:18:46.394Z,99.70
2019-03-12T18:21:16.162Z,99.90
2019-03-12T18:23:45.416Z,99.70
2019-03-12T18:26:14.914Z,99.80
2019-03-12T18:28:44.254Z,99.90
2019-03-12T18:31:13.598Z,99.70
2019-03-12T18:33:42.933Z,99.90
2019-03-12T18:36:12.298Z,99.80
2019-03-12T18:41:10.533Z,99.40
2019-03-12T18:43:39.877Z,99.90
2019-03-12T18:46:09.202Z,99.90
2019-03-12T18:48:38.554Z,99.90
2019-03-12T19:01:13.297Z,99.90
2019-03-12T19:03:42.885Z,99.90
2019-03-12T19:06:12.252Z,99.90
2019-03-12T19:08:47.513Z,99.90
2019-03-12T19:11:14.066Z,99.90
2019-03-12T19:13:44.016Z,99.90
2019-03-12T19:16:13.410Z,99.90
2019-03-12T19:18:42.820Z,99.90
2019-03-12T19:23:40.828Z,99.90
2019-03-12T19:26:11.315Z,99.90
2019-03-12T19:28:40.653Z,99.90
2019-03-12T19:31:22.588Z,99.90
2019-03-12T19:33:53.630Z,99.90
2019-03-12T19:36:23.074Z,99.90
2019-03-12T19:38:52.662Z,99.90
2019-03-12T19:41:22.556Z,99.90
2019-03-12T19:43:52.248Z,99.90
2019-03-12T19:46:21.543Z,99.90
2019-03-12T19:48:51.000Z,99.90
2019-03-12T19:51:20.553Z,99.90
2019-03-12T19:53:50.126Z,99.90
2019-03-12T19:56:19.506Z,99.90
2019-03-12T19:58:48.804Z,99.90
2019-03-12T20:01:18.803Z,99.90
2019-03-12T20:03:48.583Z,99.90
2019-03-12T20:06:17.810Z,99.90
2019-03-12T20:08:47.101Z,99.90
2019-03-12T20:11:57.570Z,99.90
2019-03-12T20:15:02.859Z,99.90
2019-03-12T20:18:08.283Z,99.90
2019-03-12T20:21:06.025Z,99.90
2019-03-12T20:24:05.992Z,99.90
2019-03-12T20:26:55.211Z,99.90
2019-03-12T20:30:03.921Z,99.90
2019-03-12T20:33:12.961Z,99.90
2019-03-12T20:36:27.907Z,99.90
2019-03-12T20:39:47.389Z,99.90
2019-03-12T20:43:21.875Z,99.90
2019-03-12T20:46:34.214Z,99.90
2019-03-12T20:49:46.757Z,99.90
2019-03-12T20:53:04.994Z,99.90
2019-03-12T20:56:13.985Z,99.90
2019-03-12T20:59:18.985Z,99.90
2019-03-12T21:02:29.964Z,99.90
2019-03-12T21:05:36.716Z,99.90
2019-03-12T21:09:10.974Z,99.90
2019-03-12T21:12:39.538Z,99.90
2019-03-12T21:15:48.632Z,99.90
2019-03-12T21:18:46.244Z,99.90
2019-03-12T21:22:03.114Z,99.90
2019-03-12T21:25:11.481Z,99.90
2019-03-12T21:28:26.796Z,99.90
2019-03-12T21:30:56.080Z,99.90
2019-03-12T21:33:25.747Z,99.90
2019-03-12T21:35:55.050Z,99.90
2019-03-12T21:38:24.442Z,99.90
2019-03-12T21:40:53.735Z,99.90
2019-03-12T21:43:23.052Z,99.90
2019-03-12T21:45:52.703Z,99.90
2019-03-12T21:48:22.082Z,99.90
2019-03-12T21:50:51.521Z,99.90
2019-03-12T21:53:20.912Z,99.90
2019-03-12T21:55:50.380Z,99.90
2019-03-12T21:58:19.801Z,99.90
2019-03-12T22:00:49.205Z,99.90
2019-03-12T22:03:18.566Z,99.90
2019-03-12T22:05:47.937Z,99.90
2019-03-12T22:08:17.132Z,99.90
2019-03-12T22:10:46.365Z,99.90
2019-03-12T22:13:15.696Z,99.90
2019-03-12T22:15:45.019Z,99.90
2019-03-12T22:18:14.305Z,99.90
2019-03-12T22:20:43.688Z,99.90
2019-03-12T22:23:16.016Z,99.90
2019-03-12T22:25:45.329Z,99.90
2019-03-12T22:28:14.677Z,99.90
2019-03-12T22:30:43.993Z,99.90
2019-03-12T22:33:13.716Z,99.90
2019-03-12T22:35:43.057Z,99.90
2019-03-12T22:38:12.369Z,99.90
2019-03-12T22:40:41.752Z,99.90
2019-03-12T22:43:11.074Z,99.90
2019-03-12T22:45:40.388Z,99.90
2019-03-12T22:48:09.733Z,99.90
2019-03-12T22:50:39.077Z,99.90
2019-03-12T22:53:08.742Z,99.90
2019-03-12T22:55:37.956Z,99.90
2019-03-12T22:58:07.219Z,99.90
2019-03-12T23:00:39.924Z,99.90
2019-03-12T23:03:09.269Z,99.90
2019-03-12T23:05:38.576Z,99.90
2019-03-12T23:08:07.881Z,99.90
2019-03-12T23:10:37.380Z,99.90
2019-03-12T23:13:06.727Z,99.90
2019-03-12T23:15:36.135Z,99.90
2019-03-12T23:18:05.473Z,99.90
2019-03-12T23:20:34.817Z,99.90
2019-03-12T23:23:04.189Z,99.90
2019-03-12T23:25:33.597Z,99.90
2019-03-12T23:28:02.965Z,99.90
2019-03-12T23:30:32.530Z,99.90
2019-03-12T23:33:02.296Z,99.90
2019-03-12T23:35:31.682Z,99.90
2019-03-12T23:38:00.990Z,99.90
2019-03-12T23:40:30.265Z,99.90
2019-03-12T23:42:59.612Z,99.90
2019-03-12T23:45:28.928Z,99.90
2019-03-12T23:47:58.285Z,99.90
2019-03-12T23:50:29.180Z,99.90
2019-03-12T23:52:58.504Z,99.90
2019-03-12T23:55:28.342Z,99.90
2019-03-12T23:57:57.636Z,99.90
